Time;durP1;ratioP1;P1;durP2;ratioP2;P2;SDS_P1;SDS_P2;PMS_P1;PMS_P2;Temp;Humidity;BMP_temperature;BMP_pressure;BME280_temperature;BME280_humidity;BME280_pressure;Samples;Min_cycle;Max_cycle;Signal;HPM_P1;HPM_P2
2023/04/04 00:01:09;;;;;;;2.90;2.20;;;;;;;3.53;65.20;101385.27;107695;1251;113117;-69
2023/04/04 00:03:38;;;;;;;2.60;2.30;;;;;;;3.45;65.23;101389.91;107703;1251;110101;-69
2023/04/04 00:06:07;;;;;;;4.00;1.90;;;;;;;3.39;65.24;101386.08;107747;1251;107327;-70
2023/04/04 00:08:36;;;;;;;4.80;2.30;;;;;;;3.42;65.44;101385.25;107766;1250;97922;-68
2023/04/04 00:11:05;;;;;;;5.60;2.50;;;;;;;3.42;65.23;101381.51;107665;1251;97790;-69
2023/04/04 00:13:33;;;;;;;3.10;2.80;;;;;;;3.40;65.32;101372.96;107853;1250;111752;-69
2023/04/04 00:16:02;;;;;;;2.90;2.60;;;;;;;3.39;65.21;101363.06;107780;1251;109013;-68
2023/04/04 00:18:32;;;;;;;2.80;2.50;;;;;;;3.38;65.28;101369.65;107742;1256;109482;-67
2023/04/04 00:21:00;;;;;;;3.30;2.20;;;;;;;3.39;65.48;101364.11;107629;1249;97821;-67
2023/04/04 00:23:28;;;;;;;6.50;2.60;;;;;;;3.38;65.42;101356.90;107603;1250;97748;-69
2023/04/04 00:25:57;;;;;;;2.90;2.40;;;;;;;3.37;65.49;101347.54;107813;1250;113024;-70
2023/04/04 00:28:25;;;;;;;2.80;2.40;;;;;;;3.37;65.48;101350.59;107776;1250;109281;-68
2023/04/04 00:30:53;;;;;;;5.50;2.80;;;;;;;3.34;65.72;101344.89;107605;1251;108202;-70
2023/04/04 00:33:22;;;;;;;3.00;2.50;;;;;;;3.30;65.60;101350.55;107620;1250;97803;-71
2023/04/04 00:35:50;;;;;;;5.60;2.90;;;;;;;3.28;66.01;101353.48;107588;1251;98365;-69
2023/04/04 00:38:19;;;;;;;4.00;3.30;;;;;;;3.27;65.77;101355.45;107620;1251;112091;-69
2023/04/04 00:40:50;;;;;;;3.00;2.40;;;;;;;3.26;66.05;101349.35;107682;1250;108827;-68
2023/04/04 00:43:18;;;;;;;3.10;2.80;;;;;;;3.26;65.98;101349.31;107651;1251;109691;-70
2023/04/04 00:45:50;;;;;;;2.70;2.30;;;;;;;3.26;66.11;101343.65;107676;1251;97822;-71
2023/04/04 00:48:20;;;;;;;3.50;2.40;;;;;;;3.27;66.09;101335.13;107762;1249;97802;-70
2023/04/04 00:50:48;;;;;;;2.60;2.40;;;;;;;3.24;65.87;101329.71;107765;1251;110040;-69
2023/04/04 00:53:16;;;;;;;3.90;2.70;;;;;;;3.22;65.88;101333.56;107647;1251;110890;-71
2023/04/04 00:55:45;;;;;;;3.90;2.80;;;;;;;3.20;65.95;101332.60;107622;1251;107657;-70
2023/04/04 00:58:14;;;;;;;3.80;2.90;;;;;;;3.18;66.02;101330.58;107623;1250;97822;-69
2023/04/04 01:00:42;;;;;;;3.50;2.90;;;;;;;3.16;66.25;101323.77;107756;1255;97946;-68
2023/04/04 01:03:11;;;;;;;3.60;3.00;;;;;;;3.10;66.35;101327.77;107721;1250;111586;-69
2023/04/04 01:05:40;;;;;;;4.20;2.50;;;;;;;2.99;66.38;101324.55;107694;1250;109153;-69
2023/04/04 01:08:09;;;;;;;4.00;2.90;;;;;;;2.93;66.38;101318.83;107732;1250;108622;-69
2023/04/04 01:10:38;;;;;;;4.80;2.80;;;;;;;2.93;66.51;101316.90;107634;1250;97841;-69
2023/04/04 01:13:08;;;;;;;4.30;2.80;;;;;;;2.89;66.60;101310.36;107674;1254;97851;-68
2023/04/04 01:15:37;;;;;;;3.50;3.10;;;;;;;2.88;67.02;101304.17;107711;1251;112252;-71
2023/04/04 01:18:08;;;;;;;5.80;3.10;;;;;;;2.85;67.05;101301.66;107684;1251;108561;-70
2023/04/04 01:20:46;;;;;;;3.80;2.70;;;;;;;2.86;67.35;101303.91;107729;1250;107468;-68
2023/04/04 01:23:16;;;;;;;6.70;3.30;;;;;;;2.83;67.08;101302.80;107745;1250;98097;-68
2023/04/04 01:25:47;;;;;;;3.70;3.00;;;;;;;2.84;67.48;101297.61;107663;1250;97756;-67
2023/04/04 01:28:16;;;;;;;3.40;2.60;;;;;;;2.85;67.42;101298.83;107725;1250;111249;-69
2023/04/04 01:30:45;;;;;;;4.10;2.80;;;;;;;2.87;67.47;101295.37;107567;1253;107685;-69
2023/04/04 01:33:25;;;;;;;4.10;3.20;;;;;;;2.87;67.46;101292.73;107715;1251;108182;-70
2023/04/04 01:36:15;;;;;;;4.60;3.00;;;;;;;2.88;67.40;101282.57;107686;1253;97829;-70
2023/04/04 01:38:58;;;;;;;4.90;3.10;;;;;;;2.88;67.39;101277.08;107834;1250;97793;-70
2023/04/04 01:41:32;;;;;;;3.50;3.10;;;;;;;2.88;67.41;101272.80;107626;1250;111630;-69
2023/04/04 01:44:02;;;;;;;4.40;3.60;;;;;;;2.88;67.41;101267.16;107760;1251;110059;-69
2023/04/04 01:46:31;;;;;;;4.60;3.00;;;;;;;2.87;67.40;101258.52;107705;1250;107620;-70
2023/04/04 01:49:00;;;;;;;4.70;2.80;;;;;;;2.85;67.36;101255.27;107777;1251;97813;-67
2023/04/04 01:51:33;;;;;;;4.10;3.20;;;;;;;2.84;67.53;101250.86;107764;1250;97874;-68
2023/04/04 01:54:01;;;;;;;5.50;3.00;;;;;;;2.86;67.50;101254.86;107761;1250;111851;-68
2023/04/04 01:56:31;;;;;;;5.80;3.20;;;;;;;2.87;67.61;101256.04;107821;1256;109329;-69
2023/04/04 01:59:00;;;;;;;6.60;3.40;;;;;;;2.87;67.76;101251.23;107749;1250;108059;-69
2023/04/04 02:01:29;;;;;;;6.10;2.70;;;;;;;2.87;67.86;101252.67;107716;1251;98249;-71
2023/04/04 02:03:57;;;;;;;3.30;2.80;;;;;;;2.88;67.74;101249.63;107753;1251;97709;-69
2023/04/04 02:06:26;;;;;;;6.10;3.10;;;;;;;2.88;67.58;101253.70;107522;1257;112084;-71
2023/04/04 02:08:55;;;;;;;3.10;2.70;;;;;;;2.83;67.57;101254.10;107670;1251;108668;-68
2023/04/04 02:11:24;;;;;;;4.10;3.50;;;;;;;2.79;67.75;101258.34;107665;1250;107089;-69
2023/04/04 02:13:53;;;;;;;4.40;3.40;;;;;;;2.79;67.70;101256.76;107648;1250;97832;-68
2023/04/04 02:16:22;;;;;;;7.30;3.50;;;;;;;2.78;67.81;101255.92;107770;1250;97805;-69
2023/04/04 02:18:51;;;;;;;4.40;3.20;;;;;;;2.73;67.65;101256.56;107728;1251;110736;-70
2023/04/04 02:21:20;;;;;;;6.50;3.70;;;;;;;2.67;67.88;101262.29;107705;1251;109269;-70
2023/04/04 02:23:48;;;;;;;4.90;3.60;;;;;;;2.67;67.89;101260.71;107777;1250;107917;-68
2023/04/04 02:26:17;;;;;;;3.90;3.30;;;;;;;2.65;67.78;101263.42;107637;1250;97818;-70
2023/04/04 02:28:45;;;;;;;5.10;3.60;;;;;;;2.66;67.95;101263.94;107767;1250;97935;-69
2023/04/04 02:31:13;;;;;;;4.10;3.50;;;;;;;2.66;68.07;101270.30;107597;1251;111560;-68
2023/04/04 02:33:42;;;;;;;5.50;3.60;;;;;;;2.64;68.07;101268.15;107615;1250;110078;-68
2023/04/04 02:36:11;;;;;;;4.20;3.20;;;;;;;2.62;68.15;101272.08;107650;1251;107632;-69
2023/04/04 02:38:40;;;;;;;4.00;3.10;;;;;;;2.64;68.22;101273.77;107646;1251;97799;-69
2023/04/04 02:41:10;;;;;;;4.40;3.50;;;;;;;2.65;68.12;101275.35;107622;1250;97713;-67
2023/04/04 02:43:39;;;;;;;4.10;3.60;;;;;;;2.65;68.34;101280.45;107631;1251;111746;-71
2023/04/04 02:46:08;;;;;;;7.40;4.20;;;;;;;2.69;68.24;101279.75;107698;1255;109410;-71
2023/04/04 02:48:50;;;;;;;6.60;4.50;;;;;;;2.68;68.14;101276.09;107616;1250;107413;-71
2023/04/04 02:51:19;;;;;;;8.10;4.50;;;;;;;2.70;68.19;101275.42;107696;1249;97862;-69
2023/04/04 02:53:48;;;;;;;9.70;6.70;;;;;;;2.71;68.06;101274.33;107781;1250;97883;-68
2023/04/04 02:56:21;;;;;;;5.20;3.90;;;;;;;2.71;68.22;101271.52;107677;1251;110988;-69
2023/04/04 02:58:50;;;;;;;5.40;4.20;;;;;;;2.72;68.61;101273.75;107690;1251;109807;-70
2023/04/04 03:01:18;;;;;;;13.00;5.60;;;;;;;2.71;68.48;101273.13;107658;1250;105669;-70
2023/04/04 03:03:47;;;;;;;7.60;4.70;;;;;;;2.67;68.61;101275.41;107638;1250;97829;-70
2023/04/04 03:06:16;;;;;;;7.00;4.90;;;;;;;2.63;69.07;101287.12;107663;1251;98337;-68
2023/04/04 03:08:44;;;;;;;5.60;4.80;;;;;;;2.59;69.14;101288.02;107794;1250;111373;-69
2023/04/04 03:11:17;;;;;;;7.20;5.10;;;;;;;2.60;69.43;101289.92;107672;1250;109518;-70
2023/04/04 03:13:47;;;;;;;;;;;;;;;2.61;69.88;101288.96;107732;1256;107305;-69
2023/04/04 03:16:18;;;;;;;9.90;5.80;;;;;;;2.59;69.98;101294.76;107585;1250;97804;-67
2023/04/04 03:18:49;;;;;;;5.70;4.30;;;;;;;2.59;70.27;101298.29;107703;1248;97759;-69
2023/04/04 03:21:20;;;;;;;4.80;4.10;;;;;;;2.57;70.33;101300.67;107719;1250;111353;-69
2023/04/04 03:23:48;;;;;;;7.00;4.80;;;;;;;2.57;70.61;101301.23;107685;1250;108655;-68
2023/04/04 03:26:16;;;;;;;6.80;4.70;;;;;;;2.57;70.86;101302.42;107643;1249;108425;-67
2023/04/04 03:28:45;;;;;;;5.10;4.50;;;;;;;2.56;70.94;101297.71;107675;1250;97861;-71
2023/04/04 03:31:14;;;;;;;5.20;4.50;;;;;;;2.59;71.30;101298.83;107742;1251;97697;-69
2023/04/04 03:33:43;;;;;;;4.40;3.80;;;;;;;2.61;71.27;101296.95;107698;1251;111474;-68
2023/04/04 03:36:12;;;;;;;5.70;4.50;;;;;;;2.61;71.87;101298.20;107744;1249;108966;-69
2023/04/04 03:38:41;;;;;;;4.50;3.80;;;;;;;2.60;71.91;101290.98;107715;1250;105883;-67
2023/04/04 03:41:10;;;;;;;7.20;4.50;;;;;;;2.60;71.60;101287.94;107751;1250;97816;-68
2023/04/04 03:43:39;;;;;;;5.00;4.10;;;;;;;2.66;71.95;101285.90;107682;1250;98431;-68
2023/04/04 03:46:08;;;;;;;9.10;5.20;;;;;;;2.71;72.56;101280.36;107683;1251;111480;-67
2023/04/04 03:48:37;;;;;;;7.30;4.50;;;;;;;2.69;72.88;101271.96;107657;1251;110168;-69
2023/04/04 03:51:08;;;;;;;5.40;4.60;;;;;;;2.64;72.73;101261.04;107733;1250;108649;-69
2023/04/04 03:53:37;;;;;;;6.20;4.50;;;;;;;2.60;73.36;101254.13;107687;1250;97826;-68
2023/04/04 03:56:06;;;;;;;7.20;4.70;;;;;;;2.54;73.51;101249.66;107700;1250;97688;-68
2023/04/04 03:58:35;;;;;;;6.90;5.40;;;;;;;2.47;74.22;101240.21;107644;1250;109854;-70
2023/04/04 04:01:03;;;;;;;6.60;5.20;;;;;;;2.40;74.28;101237.38;107681;1250;109413;-68
2023/04/04 04:03:32;;;;;;;6.80;5.20;;;;;;;2.34;74.96;101239.27;107692;1250;106708;-69
2023/04/04 04:06:02;;;;;;;9.80;5.30;;;;;;;2.27;74.84;101237.27;107680;1250;97833;-69
2023/04/04 04:08:31;;;;;;;6.30;5.20;;;;;;;2.27;74.91;101249.48;107705;1251;97803;-75
2023/04/04 04:11:04;;;;;;;10.10;5.60;;;;;;;2.26;75.40;101245.98;107658;1250;111788;-70
2023/04/04 04:13:37;;;;;;;22.10;11.10;;;;;;;2.24;76.50;101247.14;107683;1250;108977;-68
2023/04/04 04:16:06;;;;;;;9.90;5.60;;;;;;;2.21;76.08;101249.59;107712;1250;107673;-69
2023/04/04 04:18:36;;;;;;;10.20;6.50;;;;;;;2.24;76.13;101251.38;107694;1256;97918;-69
2023/04/04 04:21:06;;;;;;;6.40;5.30;;;;;;;2.28;76.14;101257.55;107699;1251;97819;-69
2023/04/04 04:23:34;;;;;;;6.60;5.60;;;;;;;2.31;76.27;101256.89;107646;1250;111483;-68
2023/04/04 04:26:03;;;;;;;7.70;5.30;;;;;;;2.32;76.26;101263.22;107654;1251;109644;-68
2023/04/04 04:28:33;;;;;;;7.90;5.90;;;;;;;2.36;76.41;101265.54;107651;1251;107475;-70
2023/04/04 04:31:06;;;;;;;9.80;5.20;;;;;;;2.40;76.41;101269.55;107636;1250;98107;-71
2023/04/04 04:33:40;;;;;;;8.40;6.10;;;;;;;2.39;76.00;101273.73;107631;1251;97914;-70
2023/04/04 04:36:10;;;;;;;8.40;5.70;;;;;;;2.38;76.27;101277.48;107652;1250;111400;-71
2023/04/04 04:38:57;;;;;;;9.60;5.30;;;;;;;2.36;76.12;101277.55;107684;1250;109344;-70
2023/04/04 04:41:28;;;;;;;8.00;5.60;;;;;;;2.34;76.32;101278.16;107692;1250;107967;-69
2023/04/04 04:43:57;;;;;;;6.90;5.50;;;;;;;2.30;76.46;101276.57;107653;1250;97825;-68
2023/04/04 04:46:27;;;;;;;6.30;5.10;;;;;;;2.30;76.41;101276.39;107722;1250;98482;-68
2023/04/04 04:48:56;;;;;;;7.10;5.40;;;;;;;2.32;76.74;101277.55;107685;1249;109968;-70
2023/04/04 04:51:28;;;;;;;8.30;5.70;;;;;;;2.33;77.01;101274.84;107676;1251;110166;-70
2023/04/04 04:53:58;;;;;;;13.50;9.20;;;;;;;2.37;77.25;101275.72;107614;1250;107744;-70
2023/04/04 04:56:27;;;;;;;9.50;7.60;;;;;;;2.41;77.56;101274.13;107647;1250;97762;-69
2023/04/04 04:58:58;;;;;;;7.80;6.10;;;;;;;2.42;77.64;101270.20;107626;1250;97912;-70
2023/04/04 05:01:27;;;;;;;9.70;6.50;;;;;;;2.42;77.82;101266.29;107686;1249;112063;-68
2023/04/04 05:03:56;;;;;;;7.60;5.80;;;;;;;2.38;77.45;101266.12;107608;1254;108712;-68
2023/04/04 05:06:37;;;;;;;8.50;5.30;;;;;;;2.30;77.30;101262.05;107697;1250;108444;-69
2023/04/04 05:09:06;;;;;;;15.30;9.70;;;;;;;2.23;77.36;101260.11;107635;1250;97910;-68
2023/04/04 05:11:37;;;;;;;17.90;10.70;;;;;;;2.22;77.73;101260.32;107623;1250;98393;-69
2023/04/04 05:14:07;;;;;;;10.00;6.10;;;;;;;2.22;78.13;101261.02;107827;1250;111846;-68
2023/04/04 05:16:39;;;;;;;7.90;6.00;;;;;;;2.26;78.03;101259.29;107680;1250;109100;-70
2023/04/04 05:19:07;;;;;;;9.00;5.60;;;;;;;2.27;77.82;101262.02;107748;1250;108331;-68
2023/04/04 05:21:42;;;;;;;8.00;6.00;;;;;;;2.28;77.81;101265.56;107589;1250;97810;-67
2023/04/04 05:24:15;;;;;;;7.20;5.70;;;;;;;2.27;77.56;101262.77;107745;1250;97744;-71
2023/04/04 05:26:45;;;;;;;7.80;6.00;;;;;;;2.25;77.79;101260.54;107637;1251;111872;-69
2023/04/04 05:29:14;;;;;;;7.60;6.00;;;;;;;2.25;77.93;101265.52;107704;1251;108959;-67
2023/04/04 05:31:46;;;;;;;7.70;5.60;;;;;;;2.26;77.80;101258.91;107656;1251;108116;-69
2023/04/04 05:34:18;;;;;;;8.50;5.90;;;;;;;2.27;77.60;101254.24;107647;1250;97982;-68
2023/04/04 05:36:49;;;;;;;13.90;6.10;;;;;;;2.32;77.85;101246.42;107582;1250;97822;-70
2023/04/04 05:39:18;;;;;;;8.10;6.60;;;;;;;2.37;77.81;101245.65;107736;1250;111355;-63
2023/04/04 05:41:57;;;;;;;6.70;5.90;;;;;;;2.39;77.90;101247.36;107575;1254;109811;-64
2023/04/04 05:44:26;;;;;;;9.30;6.30;;;;;;;2.41;77.93;101244.40;107570;1250;107589;-64
2023/04/04 05:46:55;;;;;;;8.90;7.10;;;;;;;2.38;77.96;101241.70;107620;1250;97829;-64
2023/04/04 05:49:25;;;;;;;11.10;7.10;;;;;;;2.34;77.90;101239.06;107613;1251;99538;-66
2023/04/04 05:51:57;;;;;;;13.00;7.80;;;;;;;2.34;77.94;101242.60;107722;1251;111461;-66
2023/04/04 05:54:28;;;;;;;8.70;6.60;;;;;;;2.32;78.11;101240.55;107661;1256;109487;-66
2023/04/04 05:56:58;;;;;;;10.50;8.40;;;;;;;2.30;77.95;101241.70;107561;1250;109305;-66
2023/04/04 05:59:59;;;;;;;7.00;5.80;;;;;;;2.28;77.90;101242.51;107578;1250;97801;-67
2023/04/04 06:02:28;;;;;;;7.90;6.10;;;;;;;2.25;78.04;101236.27;107631;1250;97830;-65
2023/04/04 06:05:02;;;;;;;10.00;5.90;;;;;;;2.22;78.14;101238.04;107617;1251;111852;-67
2023/04/04 06:07:34;;;;;;;8.50;5.70;;;;;;;2.15;78.31;101238.52;107735;1251;108139;-66
2023/04/04 06:10:04;;;;;;;7.60;6.50;;;;;;;2.03;78.26;101238.86;107713;1250;107644;-66
2023/04/04 06:12:35;;;;;;;7.90;5.90;;;;;;;1.98;78.59;101243.89;107732;1249;97954;-69
2023/04/04 06:15:09;;;;;;;7.40;5.60;;;;;;;1.94;79.07;101247.92;107690;1250;97805;-68
2023/04/04 06:17:38;;;;;;;7.50;5.60;;;;;;;1.93;78.97;101251.73;107609;1250;111290;-67
2023/04/04 06:20:09;;;;;;;8.40;6.70;;;;;;;1.91;78.76;101253.92;107540;1251;111347;-68
2023/04/04 06:22:37;;;;;;;11.30;7.30;;;;;;;1.97;79.24;101252.41;107646;1251;108043;-68
2023/04/04 06:25:09;;;;;;;7.60;6.30;;;;;;;2.00;79.27;101256.17;107545;1251;97834;-69
2023/04/04 06:27:39;;;;;;;6.90;5.40;;;;;;;2.03;79.25;101261.33;107561;1251;98357;-68
2023/04/04 06:30:09;;;;;;;7.80;5.60;;;;;;;2.00;79.36;101265.02;107624;1250;111668;-64
2023/04/04 06:32:39;;;;;;;15.20;6.90;;;;;;;1.90;79.26;101272.35;107606;1250;109066;-64
2023/04/04 06:35:09;;;;;;;11.30;8.20;;;;;;;1.82;79.43;101278.17;107546;1250;107981;-63
2023/04/04 06:37:44;;;;;;;7.30;5.80;;;;;;;1.79;79.77;101282.41;107619;1250;97696;-63
2023/04/04 06:40:22;;;;;;;9.70;6.90;;;;;;;1.70;79.79;101286.66;107575;1251;97738;-64
2023/04/04 06:42:52;;;;;;;9.10;7.00;;;;;;;1.65;80.09;101295.19;107670;1251;111294;-63
2023/04/04 06:45:25;;;;;;;10.80;7.40;;;;;;;1.58;80.45;101303.98;107555;1251;108776;-63
2023/04/04 06:47:55;;;;;;;9.80;7.60;;;;;;;1.47;80.76;101304.09;107633;1251;107272;-66
2023/04/04 06:50:23;;;;;;;11.50;8.30;;;;;;;1.37;80.88;101301.67;107732;1255;97915;-64
2023/04/04 06:52:52;;;;;;;12.90;7.90;;;;;;;1.27;81.58;101308.25;107602;1250;97861;-63
2023/04/04 06:55:21;;;;;;;10.80;6.80;;;;;;;1.14;82.02;101311.80;107633;1250;111432;-62
2023/04/04 06:57:50;;;;;;;12.20;8.10;;;;;;;1.04;82.35;101315.54;107720;1251;109751;-62
2023/04/04 07:00:19;;;;;;;14.20;9.10;;;;;;;1.01;82.53;101315.83;107554;1253;106814;-62
2023/04/04 07:02:47;;;;;;;11.30;7.70;;;;;;;1.05;82.53;101310.73;107605;1251;97830;-63
2023/04/04 07:05:16;;;;;;;10.30;8.00;;;;;;;1.06;82.71;101309.81;107635;1251;97831;-64
2023/04/04 07:07:47;;;;;;;9.90;7.40;;;;;;;1.03;83.13;101301.27;107687;1251;111139;-63
2023/04/04 07:10:16;;;;;;;13.20;7.10;;;;;;;1.03;82.86;101298.96;107695;1250;109556;-63
2023/04/04 07:12:45;;;;;;;10.20;6.10;;;;;;;1.11;82.86;101294.05;107664;1248;107916;-63
2023/04/04 07:15:13;;;;;;;9.80;5.90;;;;;;;1.20;82.91;101286.64;107619;1254;98375;-63
2023/04/04 07:17:42;;;;;;;7.50;5.30;;;;;;;1.23;82.79;101288.80;107589;1250;98340;-64
2023/04/04 07:20:12;;;;;;;7.30;4.80;;;;;;;1.19;82.76;101286.86;107621;1250;110611;-62
2023/04/04 07:22:41;;;;;;;11.40;5.90;;;;;;;1.11;82.95;101285.78;107574;1250;109029;-61
2023/04/04 07:25:10;;;;;;;21.90;11.80;;;;;;;1.05;82.94;101292.52;107702;1250;108520;-62
2023/04/04 07:27:42;;;;;;;15.70;9.80;;;;;;;1.08;83.19;101293.14;107625;1251;97796;-65
2023/04/04 07:30:11;;;;;;;11.50;7.10;;;;;;;1.08;83.53;101295.41;107544;1250;97867;-61
2023/04/04 07:32:40;;;;;;;6.80;4.60;;;;;;;1.03;83.59;101297.73;107553;1250;112020;-63
2023/04/04 07:35:08;;;;;;;7.10;5.40;;;;;;;0.96;83.86;101298.91;107510;1251;109578;-62
2023/04/04 07:37:37;;;;;;;8.60;6.00;;;;;;;0.91;83.99;101295.72;107573;1251;107220;-64
2023/04/04 07:40:07;;;;;;;8.20;5.40;;;;;;;0.88;83.87;101293.75;107577;1250;97942;-63
2023/04/04 07:42:36;;;;;;;9.30;5.90;;;;;;;0.89;84.49;101297.21;107661;1250;98353;-62
2023/04/04 07:45:06;;;;;;;12.10;8.30;;;;;;;0.89;84.38;101296.85;107525;1250;111309;-62
2023/04/04 07:47:34;;;;;;;17.70;10.60;;;;;;;0.90;84.43;101297.37;107714;1255;109162;-62
2023/04/04 07:50:05;;;;;;;16.20;8.50;;;;;;;0.94;84.52;101298.45;107580;1250;107388;-61
2023/04/04 07:52:33;;;;;;;27.50;10.20;;;;;;;0.94;84.56;101305.50;107612;1250;97897;-62
2023/04/04 07:55:02;;;;;;;16.50;8.90;;;;;;;0.91;84.51;101311.96;107594;1250;98365;-63
2023/04/04 07:57:35;;;;;;;13.50;7.40;;;;;;;0.89;84.46;101308.71;107601;1250;111133;-63
2023/04/04 08:00:08;;;;;;;8.90;6.50;;;;;;;0.91;84.69;101308.46;106851;1250;1036850;-63
2023/04/04 08:02:50;;;;;;;10.00;6.90;;;;;;;0.94;84.62;101302.50;107517;1250;108150;-62
2023/04/04 08:05:19;;;;;;;11.90;6.40;;;;;;;0.99;84.51;101299.84;107629;1255;97823;-62
2023/04/04 08:07:47;;;;;;;8.20;5.90;;;;;;;1.05;84.52;101299.09;107710;1250;98344;-62
2023/04/04 08:10:20;;;;;;;6.50;5.40;;;;;;;1.11;84.64;101298.81;107718;1251;110548;-64
2023/04/04 08:12:50;;;;;;;6.70;5.60;;;;;;;1.14;84.28;101295.37;107576;1250;109056;-62
2023/04/04 08:15:19;;;;;;;6.80;5.80;;;;;;;1.18;84.20;101293.41;107642;1254;108748;-64
2023/04/04 08:17:48;;;;;;;8.10;6.00;;;;;;;1.26;84.23;101295.39;107494;1251;97809;-62
2023/04/04 08:20:17;;;;;;;10.30;6.30;;;;;;;1.30;84.10;101296.30;107595;1250;98359;-62
2023/04/04 08:22:46;;;;;;;6.90;5.50;;;;;;;1.34;84.02;101290.48;107614;1250;112282;-62
2023/04/04 08:25:14;;;;;;;7.80;5.30;;;;;;;1.39;83.78;101290.26;107728;1250;108964;-62
2023/04/04 08:27:46;;;;;;;6.60;5.40;;;;;;;1.35;83.36;101285.33;107628;1254;108184;-63
2023/04/04 08:30:14;;;;;;;7.60;5.20;;;;;;;1.36;83.43;101285.09;107504;1254;98602;-63
2023/04/04 08:32:44;;;;;;;6.30;5.40;;;;;;;1.46;83.58;101278.66;107560;1250;97797;-62
2023/04/04 08:35:13;;;;;;;6.60;5.30;;;;;;;1.62;83.88;101275.33;107599;1250;110865;-62
2023/04/04 08:37:44;;;;;;;11.00;6.80;;;;;;;1.73;83.67;101270.08;107701;1251;108984;-63
2023/04/04 08:40:14;;;;;;;35.90;19.60;;;;;;;1.86;83.68;101267.05;107701;1253;109047;-62
2023/04/04 08:42:45;;;;;;;10.20;6.90;;;;;;;1.95;83.64;101264.88;107652;1251;97881;-62
2023/04/04 08:45:17;;;;;;;5.30;4.60;;;;;;;2.00;83.42;101264.85;107714;1250;97724;-63
2023/04/04 08:47:49;;;;;;;8.30;6.10;;;;;;;2.04;83.01;101261.14;107547;1250;112364;-64
2023/04/04 08:50:18;;;;;;;4.70;4.20;;;;;;;2.10;82.97;101257.84;107707;1250;108990;-65
2023/04/04 08:52:48;;;;;;;6.20;3.90;;;;;;;2.17;82.73;101255.77;107598;1250;108279;-66
2023/04/04 08:55:17;;;;;;;5.50;4.10;;;;;;;2.19;82.43;101254.96;107563;1250;97903;-63
2023/04/04 08:57:45;;;;;;;9.00;4.40;;;;;;;2.15;81.76;101251.23;107717;1251;97953;-64
2023/04/04 09:00:16;;;;;;;4.20;3.40;;;;;;;2.12;81.50;101252.95;107524;1250;111337;-63
2023/04/04 09:03:04;;;;;;;5.30;4.50;;;;;;;2.09;81.51;101247.64;107624;1250;109564;-65
2023/04/04 09:05:33;;;;;;;5.10;3.70;;;;;;;2.09;81.66;101255.08;107746;1250;107588;-62
2023/04/04 09:08:05;;;;;;;5.50;3.70;;;;;;;2.06;81.54;101258.91;107606;1250;97829;-64
2023/04/04 09:10:34;;;;;;;11.90;4.00;;;;;;;1.97;81.17;101264.98;107571;1250;97691;-63
2023/04/04 09:13:04;;;;;;;5.50;4.40;;;;;;;1.95;81.54;101272.48;107724;1248;111251;-63
2023/04/04 09:15:49;;;;;;;7.80;5.40;;;;;;;1.89;81.36;101278.61;107682;1250;110981;-63
2023/04/04 09:18:17;;;;;;;7.60;5.20;;;;;;;1.82;81.32;101285.64;107643;1248;108295;-62
2023/04/04 09:20:47;;;;;;;9.20;5.50;;;;;;;1.67;81.25;101291.91;107710;1251;97849;-63
2023/04/04 09:23:19;;;;;;;10.50;6.10;;;;;;;1.57;81.74;101296.95;107666;1251;98429;-61
2023/04/04 09:25:54;;;;;;;11.60;7.90;;;;;;;1.52;82.16;101293.95;107673;1254;110443;-63
2023/04/04 09:28:32;;;;;;;16.80;10.60;;;;;;;1.60;82.63;101294.69;107696;1251;111136;-63
2023/04/04 09:31:04;;;;;;;29.00;14.60;;;;;;;1.70;83.40;101293.73;107769;1251;107624;-62
2023/04/04 09:33:33;;;;;;;19.70;13.90;;;;;;;1.88;84.00;101297.94;107663;1251;97806;-62
2023/04/04 09:36:06;;;;;;;12.40;9.10;;;;;;;1.98;83.68;101299.77;107604;1250;97808;-62
2023/04/04 09:38:38;;;;;;;9.90;7.70;;;;;;;2.02;83.26;101295.02;107561;1251;111361;-63
2023/04/04 09:41:12;;;;;;;8.10;6.50;;;;;;;2.05;83.05;101291.02;107655;1251;109030;-63
2023/04/04 09:43:44;;;;;;;13.20;9.10;;;;;;;2.08;82.79;101283.44;107587;1250;107830;-63
2023/04/04 09:46:14;;;;;;;19.10;11.20;;;;;;;2.20;83.38;101271.39;107686;1252;97891;-66
2023/04/04 09:48:51;;;;;;;7.50;5.50;;;;;;;2.36;83.42;101261.08;107672;1251;97864;-62
2023/04/04 09:51:20;;;;;;;5.80;4.20;;;;;;;2.44;82.94;101255.45;107522;1250;112271;-64
2023/04/04 09:53:50;;;;;;;6.30;4.50;;;;;;;2.50;82.83;101254.95;107601;1250;109057;-63
2023/04/04 09:56:19;;;;;;;6.40;4.20;;;;;;;2.56;82.83;101250.08;107536;1250;108129;-63
2023/04/04 09:58:48;;;;;;;4.00;3.60;;;;;;;2.63;82.89;101244.80;107574;1250;97894;-63
2023/04/04 10:01:32;;;;;;;4.40;4.00;;;;;;;2.69;82.51;101238.33;107586;1250;98316;-63
2023/04/04 10:04:03;;;;;;;6.70;3.90;;;;;;;2.61;81.38;101243.48;107626;1253;110736;-63
2023/04/04 10:06:35;;;;;;;7.30;3.90;;;;;;;2.56;81.54;101237.66;107622;1250;108858;-63
2023/04/04 10:09:06;;;;;;;4.80;4.00;;;;;;;2.62;82.26;101234.92;107623;1254;108151;-63
2023/04/04 10:11:37;;;;;;;5.60;4.50;;;;;;;2.59;81.60;101233.48;107572;1250;97838;-62
2023/04/04 10:14:08;;;;;;;10.80;5.10;;;;;;;2.56;81.60;101237.84;107744;1250;97812;-62
2023/04/04 10:16:37;;;;;;;14.00;5.80;;;;;;;2.54;81.67;101236.20;107528;1250;111294;-62
2023/04/04 10:19:07;;;;;;;8.10;5.10;;;;;;;2.47;81.62;101237.20;107693;1250;109914;-62
2023/04/04 10:21:36;;;;;;;4.50;3.80;;;;;;;2.39;81.37;101231.02;107693;1250;107727;-63
2023/04/04 10:24:08;;;;;;;5.40;4.20;;;;;;;2.24;80.83;101226.40;107560;1250;97743;-63
2023/04/04 10:26:37;;;;;;;5.20;4.40;;;;;;;2.13;81.16;101222.85;107751;1250;97813;-62
2023/04/04 10:29:05;;;;;;;5.60;4.80;;;;;;;2.11;81.64;101227.71;107608;1250;111782;-62
2023/04/04 10:31:39;;;;;;;5.60;4.70;;;;;;;2.08;81.70;101224.52;107565;1250;110747;-62
2023/04/04 10:34:27;;;;;;;6.00;4.70;;;;;;;2.09;81.92;101214.88;107635;1251;108546;-62
2023/04/04 10:37:12;;;;;;;9.40;5.40;;;;;;;2.11;82.10;101208.98;107675;1253;97950;-63
2023/04/04 10:40:15;;;;;;;5.70;4.60;;;;;;;2.10;82.00;101205.66;107709;1251;97698;-63
2023/04/04 10:42:45;;;;;;;6.40;4.70;;;;;;;2.02;81.80;101204.77;107624;1251;111864;-63
2023/04/04 10:45:16;;;;;;;6.00;4.70;;;;;;;2.03;82.15;101199.41;107554;1251;108956;-61
2023/04/04 10:47:50;;;;;;;5.90;4.60;;;;;;;2.07;82.41;101193.95;107596;1256;107815;-62
2023/04/04 10:50:19;;;;;;;5.60;4.60;;;;;;;2.11;82.32;101195.14;107530;1250;97802;-63
2023/04/04 10:52:49;;;;;;;5.30;4.00;;;;;;;2.14;82.66;101195.55;107582;1253;97887;-63
2023/04/04 10:55:18;;;;;;;5.70;4.70;;;;;;;2.14;82.76;101189.19;107568;1250;111163;-64
2023/04/04 10:57:51;;;;;;;4.70;3.60;;;;;;;2.08;82.86;101187.67;107700;1250;110352;-63
2023/04/04 11:00:23;;;;;;;4.70;4.20;;;;;;;2.06;82.95;101182.14;107521;1251;109223;-63
2023/04/04 11:02:55;;;;;;;7.70;3.70;;;;;;;2.03;82.87;101179.44;107568;1250;97807;-62
2023/04/04 11:05:50;;;;;;;4.60;3.70;;;;;;;2.00;82.85;101171.05;107599;1250;97686;-62
2023/04/04 11:08:23;;;;;;;5.20;3.70;;;;;;;2.03;82.90;101156.79;107576;1250;112227;-64
2023/04/04 11:10:53;;;;;;;4.30;3.40;;;;;;;2.04;82.93;101145.39;107522;1250;109066;-66
2023/04/04 11:13:34;;;;;;;4.30;3.90;;;;;;;2.05;82.94;101142.19;107698;1248;108888;-64
2023/04/04 11:16:14;;;;;;;4.50;3.90;;;;;;;2.06;82.94;101137.54;107689;1250;97955;-62
2023/04/04 11:18:44;;;;;;;4.60;3.50;;;;;;;2.05;83.02;101129.80;107797;1253;98333;-63
2023/04/04 11:21:14;;;;;;;4.00;3.30;;;;;;;2.05;83.13;101111.60;107679;1251;111264;-65
2023/04/04 11:23:48;;;;;;;4.60;4.10;;;;;;;2.05;83.23;101098.33;107657;1251;109644;-63
2023/04/04 11:26:41;;;;;;;4.90;3.90;;;;;;;2.03;83.35;101086.36;107677;1255;108800;-64
2023/04/04 11:29:20;;;;;;;3.60;3.20;;;;;;;2.00;83.20;101072.20;107656;1256;97816;-64
2023/04/04 11:31:50;;;;;;;4.60;3.20;;;;;;;1.96;83.36;101048.32;107552;1250;99499;-64
2023/04/04 11:34:31;;;;;;;4.40;3.60;;;;;;;1.97;83.59;101039.09;107551;1250;111410;-63
2023/04/04 11:37:16;;;;;;;7.50;3.10;;;;;;;1.95;83.63;101041.46;107669;1253;110049;-64